Time;durP1;ratioP1;P1;durP2;ratioP2;P2;SDS_P1;SDS_P2;PMS_P1;PMS_P2;Temp;Humidity;BMP_temperature;BMP_pressure;BME280_temperature;BME280_humidity;BME280_pressure;Samples;Min_cycle;Max_cycle;Signal;HPM_P1;HPM_P2
2021/01/28 00:01:09;;;;;;;15.45;8.60;;;;;;;-1.04;78.57;98143.13;1808096;79;21638;-70
2021/01/28 00:03:37;;;;;;;14.50;8.43;;;;;;;-1.02;78.50;98134.83;1807835;79;21582;-69
2021/01/28 00:06:05;;;;;;;14.50;7.87;;;;;;;-1.02;78.35;98134.36;1807860;79;21292;-70
2021/01/28 00:08:33;;;;;;;14.80;8.28;;;;;;;-1.01;78.28;98127.40;1808375;79;21143;-70
2021/01/28 00:11:00;;;;;;;12.80;7.40;;;;;;;-1.00;78.30;98123.45;1808497;79;21281;-69
2021/01/28 00:13:27;;;;;;;14.83;8.10;;;;;;;-1.01;78.22;98135.19;1808410;79;21146;-69
2021/01/28 00:15:55;;;;;;;13.43;8.35;;;;;;;-1.01;78.26;98128.26;1808540;79;21110;-69
2021/01/28 00:18:23;;;;;;;11.73;7.55;;;;;;;-1.03;78.35;98139.63;1807995;79;21138;-69
2021/01/28 00:20:50;;;;;;;13.22;7.95;;;;;;;-0.98;78.22;98136.34;1807849;79;21299;-69
2021/01/28 00:23:18;;;;;;;12.10;7.40;;;;;;;-1.00;78.14;98136.87;1807931;79;21174;-69
2021/01/28 00:25:46;;;;;;;12.85;7.03;;;;;;;-1.00;77.70;98121.30;1807747;79;21142;-69
2021/01/28 00:28:16;;;;;;;14.30;7.00;;;;;;;-1.01;77.88;98119.61;1808070;79;21736;-69
2021/01/28 00:30:47;;;;;;;12.63;7.75;;;;;;;-0.98;77.83;98124.67;1807745;79;21297;-69
2021/01/28 00:33:20;;;;;;;15.45;7.50;;;;;;;-1.01;77.89;98113.13;1807861;79;21346;-69
2021/01/28 00:35:50;;;;;;;13.95;7.42;;;;;;;-0.94;77.73;98122.30;1808110;79;21150;-69
2021/01/28 00:38:30;;;;;;;13.88;7.85;;;;;;;-0.95;77.68;98119.31;1807896;79;21622;-69
2021/01/28 00:40:59;;;;;;;11.45;7.17;;;;;;;-0.96;77.80;98105.95;1807958;79;21185;-70
2021/01/28 00:43:27;;;;;;;12.35;7.22;;;;;;;-0.94;77.70;98084.67;1807350;79;21622;-70
2021/01/28 00:45:55;;;;;;;12.45;7.42;;;;;;;-0.96;77.82;98101.23;1807884;79;21320;-70
2021/01/28 00:48:24;;;;;;;11.38;6.80;;;;;;;-0.92;77.67;98119.63;1807743;79;21185;-70
2021/01/28 00:50:53;;;;;;;12.93;7.37;;;;;;;-0.89;77.66;98124.20;1807812;79;21197;-70
2021/01/28 00:53:21;;;;;;;13.30;7.55;;;;;;;-0.88;77.44;98107.72;1807966;79;21198;-70
2021/01/28 00:55:48;;;;;;;13.00;7.87;;;;;;;-0.90;77.47;98093.14;1808757;79;21169;-71
2021/01/28 01:00:48;;;;;;;10.93;7.40;;;;;;;-0.89;77.54;98098.25;1819261;79;22932;-70
2021/01/28 01:03:19;;;;;;;11.70;7.20;;;;;;;-0.96;77.71;98107.25;1792551;80;21138;-69
2021/01/28 01:05:47;;;;;;;11.65;7.08;;;;;;;-0.97;77.60;98081.38;1761981;80;21205;-69
2021/01/28 01:08:22;;;;;;;12.33;7.25;;;;;;;-0.97;77.73;98083.54;1792655;80;21150;-69
2021/01/28 01:11:00;;;;;;;10.55;6.50;;;;;;;-0.97;77.81;98090.47;1792417;80;21175;-69
2021/01/28 01:13:30;;;;;;;13.90;7.15;;;;;;;-1.01;77.55;98081.98;1791769;80;21210;-68
2021/01/28 01:16:00;;;;;;;12.75;7.37;;;;;;;-1.04;77.74;98080.86;1790758;80;21663;-69
2021/01/28 01:18:31;;;;;;;11.60;6.92;;;;;;;-0.99;77.73;98068.49;1792473;80;21308;-69
2021/01/28 01:20:59;;;;;;;12.40;7.35;;;;;;;-0.95;77.64;98080.39;1792624;80;21132;-69
2021/01/28 01:23:27;;;;;;;12.88;7.05;;;;;;;-0.94;77.54;98078.66;1792629;80;21296;-69
2021/01/28 01:26:04;;;;;;;11.10;6.78;;;;;;;-0.93;77.45;98088.09;1792153;80;21162;-69
2021/01/28 01:28:32;;;;;;;13.00;7.45;;;;;;;-0.90;77.39;98077.58;1792762;80;21171;-69
2021/01/28 01:31:01;;;;;;;12.13;7.00;;;;;;;-0.93;77.34;98077.27;1791814;80;21304;-69
2021/01/28 01:33:31;;;;;;;11.80;6.28;;;;;;;-0.92;77.29;98082.84;1792521;80;21288;-69
2021/01/28 01:36:03;;;;;;;13.05;7.12;;;;;;;-0.94;77.24;98078.66;1792321;80;21288;-69
2021/01/28 01:38:31;;;;;;;10.68;6.50;;;;;;;-0.92;77.40;98080.25;1761841;80;21769;-69
2021/01/28 01:40:59;;;;;;;12.43;7.33;;;;;;;-0.97;77.52;98073.59;1791583;80;21627;-69
2021/01/28 01:43:27;;;;;;;10.18;6.72;;;;;;;-0.98;77.41;98064.98;1724440;83;21215;-69
2021/01/28 01:46:04;;;;;;;13.68;7.50;;;;;;;-0.99;77.57;98064.59;1724605;83;21151;-70
2021/01/28 01:48:44;;;;;;;9.85;6.20;;;;;;;-0.99;77.56;98045.96;1728212;83;21598;-69
2021/01/28 01:51:42;;;;;;;14.00;7.22;;;;;;;-0.96;77.67;98043.67;1724671;83;21155;-69
2021/01/28 01:54:28;;;;;;;9.83;6.20;;;;;;;-1.01;77.75;98041.77;1684758;85;21211;-69
2021/01/28 01:57:00;;;;;;;10.80;7.05;;;;;;;-1.03;77.84;98052.70;1747130;82;21401;-69
2021/01/28 01:59:37;;;;;;;14.10;7.33;;;;;;;-1.01;77.96;98049.55;1769128;80;21622;-70
2021/01/28 02:02:23;;;;;;;13.53;7.35;;;;;;;-1.01;78.05;98053.45;1714460;84;21583;-69
2021/01/28 02:05:16;;;;;;;11.97;6.90;;;;;;;-0.98;78.05;98044.23;1714088;84;21175;-70
2021/01/28 02:08:01;;;;;;;10.63;6.72;;;;;;;-0.98;78.10;98046.82;1780756;80;21179;-69
2021/01/28 02:10:47;;;;;;;10.48;6.05;;;;;;;-0.96;78.23;98038.95;1714233;84;21621;-69
2021/01/28 02:13:35;;;;;;;12.95;6.15;;;;;;;-1.01;78.39;98037.44;1776699;80;21152;-69
2021/01/28 02:16:04;;;;;;;14.30;7.83;;;;;;;-1.04;78.59;98031.56;1711684;84;21640;-69
2021/01/28 02:18:33;;;;;;;10.40;6.35;;;;;;;-1.01;78.66;98033.98;1779142;80;21174;-69
2021/01/28 02:21:29;;;;;;;11.60;7.20;;;;;;;-1.04;78.68;98015.52;1752711;80;21147;-69
2021/01/28 02:24:25;;;;;;;11.83;7.28;;;;;;;-1.00;78.77;98007.13;1712839;84;21155;-69
2021/01/28 02:26:52;;;;;;;12.10;7.37;;;;;;;-1.04;78.89;98006.91;1713814;83;21560;-69
2021/01/28 02:29:38;;;;;;;14.80;7.47;;;;;;;-1.01;78.75;98004.14;1713897;84;21321;-69
2021/01/28 02:32:06;;;;;;;11.55;6.75;;;;;;;-1.01;78.90;98013.23;1780073;80;21631;-69
2021/01/28 02:34:36;;;;;;;11.70;7.15;;;;;;;-1.01;78.87;98006.73;1780254;80;21147;-69
2021/01/28 02:37:16;;;;;;;14.83;8.15;;;;;;;-1.00;78.69;98001.94;1779720;80;21132;-69
2021/01/28 02:39:45;;;;;;;12.98;8.10;;;;;;;-0.97;78.71;98013.91;1708578;84;21198;-69
2021/01/28 02:42:23;;;;;;;11.88;7.22;;;;;;;-0.93;78.62;98010.23;1779369;80;21556;-69
2021/01/28 02:44:52;;;;;;;12.68;7.30;;;;;;;-0.93;78.60;98004.61;1779151;80;21166;-69
2021/01/28 02:47:38;;;;;;;15.68;8.00;;;;;;;-0.93;78.46;97998.13;1780432;80;21135;-69
2021/01/28 02:50:08;;;;;;;13.40;7.80;;;;;;;-0.91;78.46;98011.87;1723107;80;21195;-69
2021/01/28 02:52:35;;;;;;;13.95;8.00;;;;;;;-0.91;78.44;98005.38;1685321;84;21625;-69
2021/01/28 02:55:07;;;;;;;11.50;7.47;;;;;;;-0.85;78.34;98018.48;1779328;80;21164;-69
2021/01/28 02:57:34;;;;;;;11.18;7.03;;;;;;;-0.85;78.26;98034.06;1780017;80;21160;-69
2021/01/28 03:00:10;;;;;;;10.60;6.65;;;;;;;-0.79;78.16;98038.08;1685230;84;21624;-70
2021/01/28 03:02:37;;;;;;;11.75;7.50;;;;;;;-0.76;78.15;98034.05;1779958;80;21159;-70
2021/01/28 03:05:07;;;;;;;14.18;8.05;;;;;;;-0.73;78.02;98037.77;1779948;80;21159;-69
2021/01/28 03:07:42;;;;;;;13.08;7.95;;;;;;;-0.81;77.97;98011.38;1779981;80;21124;-69
2021/01/28 03:10:12;;;;;;;12.58;6.97;;;;;;;-0.70;78.02;98035.86;1780164;80;21167;-69
2021/01/28 03:12:41;;;;;;;13.25;7.50;;;;;;;-0.70;77.98;98024.65;1775881;80;21667;-70
2021/01/28 03:15:12;;;;;;;11.93;7.10;;;;;;;-0.71;78.00;98025.56;1777980;80;21140;-70
2021/01/28 03:17:42;;;;;;;13.35;7.50;;;;;;;-0.78;77.98;98020.30;1713247;84;21199;-70
2021/01/28 03:20:13;;;;;;;12.25;7.20;;;;;;;-0.77;78.12;98021.51;1779980;80;21204;-69
2021/01/28 03:22:41;;;;;;;13.45;7.97;;;;;;;-0.80;78.35;98007.88;1780086;80;21120;-69
2021/01/28 03:25:12;;;;;;;13.45;7.95;;;;;;;-0.76;78.39;98011.98;1772247;80;21215;-69
2021/01/28 03:27:39;;;;;;;13.72;8.45;;;;;;;-0.76;78.29;98011.98;1779970;80;21169;-69
2021/01/28 03:30:12;;;;;;;14.35;8.23;;;;;;;-0.72;78.14;98014.79;1780041;80;21171;-69
2021/01/28 03:32:39;;;;;;;15.75;8.98;;;;;;;-0.69;78.18;98021.11;1780022;80;21694;-69
2021/01/28 03:35:08;;;;;;;11.65;7.42;;;;;;;-0.68;78.25;98018.90;1779826;80;21171;-69
2021/01/28 03:37:35;;;;;;;12.47;7.65;;;;;;;-0.63;78.18;98019.97;1713547;84;21191;-69
2021/01/28 03:40:06;;;;;;;15.45;7.97;;;;;;;-0.69;78.19;98010.72;1780005;80;21191;-69
2021/01/28 03:42:34;;;;;;;12.33;8.05;;;;;;;-0.65;78.16;98007.08;1779995;80;21136;-69
2021/01/28 03:45:02;;;;;;;15.55;8.55;;;;;;;-0.69;78.28;98010.72;1779809;80;21179;-69
2021/01/28 03:47:31;;;;;;;11.97;7.33;;;;;;;-0.62;78.21;98014.69;1713702;83;21179;-69
2021/01/28 03:50:12;;;;;;;11.88;7.37;;;;;;;-0.63;78.11;98000.02;1779675;80;21596;-68
2021/01/28 03:52:41;;;;;;;17.05;8.98;;;;;;;-0.67;78.16;97995.92;1711435;84;21329;-68
2021/01/28 03:55:11;;;;;;;14.23;8.88;;;;;;;-0.66;78.20;97995.00;1751872;80;21183;-68
2021/01/28 03:57:40;;;;;;;16.25;9.70;;;;;;;-0.65;78.31;98007.08;1713316;84;21600;-68
2021/01/28 04:00:12;;;;;;;14.90;8.23;;;;;;;-0.62;78.29;98006.90;1776332;80;21177;-68
2021/01/28 04:02:41;;;;;;;13.55;7.80;;;;;;;-0.67;78.27;98008.42;1771807;81;21617;-68
2021/01/28 04:05:28;;;;;;;13.55;8.65;;;;;;;-0.60;78.21;98014.16;1705838;84;21200;-68
2021/01/28 04:08:13;;;;;;;14.75;8.53;;;;;;;-0.62;78.21;98013.39;1705714;84;21175;-68
2021/01/28 04:10:45;;;;;;;17.62;9.68;;;;;;;-0.61;78.27;98009.05;1769982;81;21607;-68
2021/01/28 04:13:13;;;;;;;17.15;8.85;;;;;;;-0.59;78.36;98013.25;1771670;81;21175;-68
2021/01/28 04:15:45;;;;;;;15.75;9.60;;;;;;;-0.66;78.63;98001.49;1771320;81;21183;-69
2021/01/28 04:18:12;;;;;;;13.68;9.08;;;;;;;-0.61;78.49;98005.98;1705668;84;21187;-71
2021/01/28 04:20:42;;;;;;;15.60;8.50;;;;;;;-0.62;78.67;98010.80;1771639;81;21803;-71
2021/01/28 04:23:11;;;;;;;15.75;9.53;;;;;;;-0.56;78.58;98016.97;1705810;84;21318;-71
2021/01/28 04:25:41;;;;;;;14.33;8.85;;;;;;;-0.56;78.62;98019.56;1769423;81;21180;-71
2021/01/28 04:28:08;;;;;;;15.23;8.95;;;;;;;-0.49;78.38;98023.97;1705911;84;21152;-71
2021/01/28 04:30:41;;;;;;;14.73;8.98;;;;;;;-0.47;78.43;98030.38;1770931;81;21168;-71
2021/01/28 04:33:09;;;;;;;17.12;10.20;;;;;;;-0.48;78.34;98020.92;1771882;81;21143;-71
2021/01/28 04:35:56;;;;;;;16.90;9.25;;;;;;;-0.46;78.41;98012.58;1771753;81;21616;-71
2021/01/28 04:38:23;;;;;;;15.78;9.25;;;;;;;-0.51;78.52;98009.77;1771989;81;21314;-68
2021/01/28 04:40:58;;;;;;;15.55;9.08;;;;;;;-0.46;78.43;98004.78;1771175;81;21171;-68
2021/01/28 04:43:31;;;;;;;18.10;10.08;;;;;;;-0.51;78.51;97995.96;1749256;81;21742;-68
2021/01/28 04:46:06;;;;;;;15.75;8.80;;;;;;;-0.48;78.55;98007.95;1763275;81;21340;-68
2021/01/28 04:48:35;;;;;;;14.70;9.18;;;;;;;-0.53;78.67;97998.61;1705386;84;21343;-69
2021/01/28 04:51:08;;;;;;;16.73;9.13;;;;;;;-0.51;78.71;97989.47;1770492;81;21771;-69
2021/01/28 04:53:55;;;;;;;18.82;9.78;;;;;;;-0.56;79.01;98003.98;1727264;81;21171;-69
2021/01/28 04:56:26;;;;;;;16.73;9.70;;;;;;;-0.54;79.00;98005.20;1771591;81;21165;-69
2021/01/28 04:59:11;;;;;;;14.93;9.08;;;;;;;-0.57;79.12;97984.59;1703652;84;21644;-70
2021/01/28 05:01:39;;;;;;;17.27;9.28;;;;;;;-0.60;79.19;97998.58;1778784;80;21309;-69
2021/01/28 05:04:40;;;;;;;14.03;7.70;;;;;;;-0.63;79.45;97980.55;1779813;80;21164;-70
2021/01/28 05:07:11;;;;;;;15.53;9.38;;;;;;;-0.64;79.53;97970.25;1778233;80;21505;-70
2021/01/28 05:10:27;;;;;;;16.10;8.78;;;;;;;-0.66;79.39;97956.06;1713386;83;21140;-70
2021/01/28 05:13:05;;;;;;;15.68;8.83;;;;;;;-0.64;79.54;97963.29;1763993;80;21148;-70
2021/01/28 05:15:40;;;;;;;18.90;10.48;;;;;;;-0.65;79.59;97943.47;1776153;80;21619;-69
2021/01/28 05:18:35;;;;;;;16.27;9.63;;;;;;;-0.64;79.65;97954.20;1643375;87;21377;-70
2021/01/28 05:21:20;;;;;;;15.77;11.43;;;;;;;-0.63;79.80;97962.38;1765178;79;28351;-70
2021/01/28 05:23:50;;;;;;;14.58;9.33;;;;;;;-0.46;79.37;97964.53;1720827;82;21182;-70
2021/01/28 05:26:40;;;;;;;16.45;9.40;;;;;;;-0.28;78.61;97966.14;1700283;82;21136;-70
2021/01/28 05:29:26;;;;;;;18.17;10.75;;;;;;;-0.31;78.56;97953.30;1753096;82;21138;-71
2021/01/28 05:31:58;;;;;;;15.23;10.45;;;;;;;-0.38;78.68;97955.41;1751593;82;21269;-71
2021/01/28 05:34:44;;;;;;;17.77;11.08;;;;;;;-0.40;78.82;97953.81;1753482;81;21571;-69
2021/01/28 05:37:23;;;;;;;17.77;10.78;;;;;;;-0.48;79.05;97958.60;1750980;82;21179;-69
2021/01/28 05:40:22;;;;;;;15.20;8.68;;;;;;;-0.42;78.90;97962.14;1752557;82;21154;-70
2021/01/28 05:42:51;;;;;;;17.37;9.63;;;;;;;-0.48;79.03;97958.60;1721969;83;21178;-70
2021/01/28 05:45:36;;;;;;;16.05;9.40;;;;;;;-0.45;79.07;97954.53;1723204;83;21580;-70
2021/01/28 05:48:29;;;;;;;17.37;10.82;;;;;;;-0.46;79.13;97956.73;1723307;83;21305;-70
2021/01/28 05:51:15;;;;;;;14.55;9.18;;;;;;;-0.48;79.11;97954.70;1709322;83;21183;-70
2021/01/28 05:54:02;;;;;;;20.57;10.68;;;;;;;-0.46;79.22;97960.20;1693349;83;21107;-70
2021/01/28 05:57:07;;;;;;;21.02;11.73;;;;;;;-0.41;79.20;97959.48;1766908;79;23458;-68
2021/01/28 05:59:53;;;;;;;19.10;10.78;;;;;;;-0.50;79.31;97958.22;1684680;85;21742;-68
2021/01/28 06:02:39;;;;;;;16.80;9.98;;;;;;;-0.48;79.34;97961.20;1700400;84;21742;-69
2021/01/28 06:05:28;;;;;;;16.35;9.45;;;;;;;-0.48;79.34;97963.33;1658392;84;21651;-69
2021/01/28 06:08:06;;;;;;;18.27;9.90;;;;;;;-0.54;79.53;97956.72;1691891;83;21165;-68
2021/01/28 06:11:28;;;;;;;17.10;9.28;;;;;;;-0.48;79.51;97964.63;1681382;85;21243;-68
2021/01/28 06:14:34;;;;;;;15.53;9.05;;;;;;;-0.48;79.40;97961.20;1700139;84;21312;-68
2021/01/28 06:17:24;;;;;;;17.15;9.70;;;;;;;-0.48;79.48;97968.98;1687385;84;21222;-68
2021/01/28 06:20:25;;;;;;;17.80;10.20;;;;;;;-0.50;79.52;97973.80;1712486;84;21314;-68
2021/01/28 06:22:58;;;;;;;16.00;10.10;;;;;;;-0.49;79.47;97973.33;1712653;84;21115;-68
2021/01/28 06:26:18;;;;;;;16.75;9.45;;;;;;;-0.45;79.34;97970.11;1690094;84;21709;-68
2021/01/28 06:28:56;;;;;;;20.52;11.05;;;;;;;-0.51;79.45;97970.81;1659315;84;21142;-68
2021/01/28 06:31:38;;;;;;;19.25;10.72;;;;;;;-0.52;79.50;97976.92;1685864;84;21233;-68
2021/01/28 06:35:16;;;;;;;22.25;11.68;;;;;;;-0.46;79.50;97981.41;1695590;84;21293;-70
2021/01/28 06:38:27;;;;;;;22.15;11.65;;;;;;;-0.45;79.44;97966.22;1706183;83;21198;-71
2021/01/28 06:41:21;;;;;;;22.62;11.88;;;;;;;-0.52;79.50;97967.84;1726774;82;21316;-70
2021/01/28 06:44:16;;;;;;;20.52;11.50;;;;;;;-0.53;79.61;97957.06;1693763;83;21170;-68
2021/01/28 06:47:20;;;;;;;23.38;12.35;;;;;;;-0.48;79.87;97949.52;1808270;78;22987;-68
2021/01/28 06:50:24;;;;;;;21.27;11.28;;;;;;;-0.55;79.97;97944.64;1793841;80;21182;-69
2021/01/28 06:52:59;;;;;;;21.85;11.57;;;;;;;-0.51;79.80;97951.34;1715609;83;21383;-68
2021/01/28 06:55:46;;;;;;;21.42;12.15;;;;;;;-0.52;79.98;97947.06;1699684;83;21311;-68
2021/01/28 06:59:02;;;;;;;21.70;11.75;;;;;;;-0.55;80.04;97935.56;1681845;84;21158;-68
2021/01/28 07:01:44;;;;;;;26.82;12.58;;;;;;;-0.55;80.24;97926.91;1684773;83;21230;-67
2021/01/28 07:04:53;;;;;;;25.27;13.40;;;;;;;-0.54;80.37;97934.64;1652533;84;21659;-67
2021/01/28 07:07:25;;;;;;;23.38;11.55;;;;;;;-0.52;80.25;97932.78;1680100;84;21167;-67
2021/01/28 07:10:14;;;;;;;19.98;11.75;;;;;;;-0.50;80.53;97933.55;1636002;83;21174;-69
2021/01/28 07:12:54;;;;;;;23.27;12.25;;;;;;;-0.32;80.34;97915.26;1807318;79;22974;-68
2021/01/28 07:15:40;;;;;;;21.97;10.38;;;;;;;-0.46;80.64;97923.84;1788178;80;21099;-68
2021/01/28 07:18:28;;;;;;;20.95;11.78;;;;;;;-0.47;80.76;97918.70;1734320;80;21167;-68
2021/01/28 07:21:01;;;;;;;22.30;11.33;;;;;;;-0.37;80.66;97925.06;1724501;83;21651;-68
2021/01/28 07:23:40;;;;;;;17.20;10.45;;;;;;;-0.47;80.90;97912.20;1696789;83;21158;-69
2021/01/28 07:26:15;;;;;;;19.27;10.35;;;;;;;-0.47;80.98;97899.22;1725504;83;21580;-68
2021/01/28 07:28:45;;;;;;;19.40;10.40;;;;;;;-0.45;81.01;97895.63;1727912;83;21298;-68
2021/01/28 07:31:22;;;;;;;18.12;9.23;;;;;;;-0.53;81.20;97889.55;1721479;83;21607;-68
2021/01/28 07:34:03;;;;;;;17.35;10.53;;;;;;;-0.43;81.13;97898.98;1730048;83;21179;-68
2021/01/28 07:36:50;;;;;;;20.72;10.20;;;;;;;-0.43;81.01;97903.35;1712661;84;21458;-68
2021/01/28 07:39:35;;;;;;;20.48;10.58;;;;;;;-0.50;81.42;97908.88;1656923;84;21132;-68
2021/01/28 07:42:29;;;;;;;18.23;10.95;;;;;;;-0.31;81.18;97919.53;1727943;83;21577;-68
2021/01/28 07:45:25;;;;;;;21.97;10.80;;;;;;;-0.32;81.19;97930.84;1695468;84;21656;-68
2021/01/28 07:47:59;;;;;;;18.32;10.38;;;;;;;-0.34;81.18;97927.52;1780202;79;22945;-69
2021/01/28 07:50:34;;;;;;;24.67;12.07;;;;;;;-0.28;80.97;97929.78;1748444;82;21119;-69
2021/01/28 07:53:28;;;;;;;20.30;11.45;;;;;;;-0.32;81.05;97914.43;1753134;82;21179;-68
2021/01/28 07:55:56;;;;;;;16.65;9.68;;;;;;;-0.30;81.17;97909.53;1752008;82;21321;-70
2021/01/28 07:58:32;;;;;;;18.10;9.68;;;;;;;-0.25;80.89;97914.00;1723595;82;21139;-69
2021/01/28 08:01:07;;;;;;;23.10;11.15;;;;;;;-0.30;81.11;97924.29;1753004;82;21159;-69
2021/01/28 08:03:38;;;;;;;18.23;9.33;;;;;;;-0.23;81.04;97929.06;1753099;82;21171;-69
2021/01/28 08:06:10;;;;;;;22.20;11.75;;;;;;;-0.09;80.76;97928.73;1753019;81;21727;-69
2021/01/28 08:08:37;;;;;;;23.70;10.90;;;;;;;-0.15;80.84;97934.27;1724842;82;21615;-69
2021/01/28 08:11:14;;;;;;;17.25;9.60;;;;;;;-0.20;81.15;97932.77;1752833;82;21284;-69
2021/01/28 08:13:42;;;;;;;14.98;8.30;;;;;;;-0.10;80.94;97934.41;1752197;82;21199;-69
2021/01/28 08:16:14;;;;;;;16.55;9.25;;;;;;;-0.11;81.06;97944.42;1750285;82;21162;-72
2021/01/28 08:18:47;;;;;;;17.90;9.75;;;;;;;-0.22;81.17;97958.02;1727147;82;21599;-70
2021/01/28 08:21:26;;;;;;;19.23;10.85;;;;;;;-0.18;81.15;97940.03;1690460;85;21182;-68
2021/01/28 08:23:54;;;;;;;19.75;10.00;;;;;;;-0.22;81.29;97929.44;1685933;84;21178;-68
2021/01/28 08:26:29;;;;;;;20.32;10.72;;;;;;;-0.29;81.73;97911.69;1694032;84;21319;-68
2021/01/28 08:29:16;;;;;;;22.62;11.00;;;;;;;-0.16;81.63;97925.65;1685758;84;21309;-68
2021/01/28 08:31:50;;;;;;;21.17;11.10;;;;;;;-0.12;81.21;97917.23;1689000;84;21218;-67
2021/01/28 08:34:29;;;;;;;24.95;11.95;;;;;;;-0.21;81.59;97912.91;1708101;84;21567;-68
2021/01/28 08:37:02;;;;;;;21.25;10.72;;;;;;;-0.11;81.36;97915.84;1719695;83;21207;-68
2021/01/28 08:39:33;;;;;;;20.00;9.70;;;;;;;-0.04;81.09;97916.31;1697545;83;21371;-68
2021/01/28 08:42:08;;;;;;;20.25;10.03;;;;;;;-0.10;81.27;97916.22;1704601;84;21181;-68
2021/01/28 08:44:35;;;;;;;17.17;9.73;;;;;;;-0.06;81.28;97912.98;1701770;84;21157;-68
2021/01/28 08:47:19;;;;;;;18.02;10.40;;;;;;;0.04;80.78;97919.34;1736225;82;21184;-68
2021/01/28 08:50:14;;;;;;;14.20;8.60;;;;;;;-0.01;80.91;97910.97;1671435;86;21169;-68
2021/01/28 08:52:44;;;;;;;17.45;10.20;;;;;;;0.03;81.01;97912.46;1671684;86;21184;-68
2021/01/28 08:55:24;;;;;;;18.65;10.08;;;;;;;0.20;80.67;97911.48;1716943;81;21182;-68
2021/01/28 08:57:52;;;;;;;19.15;10.25;;;;;;;0.16;80.62;97915.20;1728684;82;21171;-68
2021/01/28 09:00:22;;;;;;;15.00;8.90;;;;;;;0.09;80.72;97910.81;1697296;82;21618;-68
2021/01/28 09:02:52;;;;;;;14.65;9.00;;;;;;;0.23;80.31;97907.88;1744665;82;21300;-68
2021/01/28 09:05:30;;;;;;;19.57;10.03;;;;;;;0.23;80.07;97906.58;1745039;82;21556;-68
2021/01/28 09:08:09;;;;;;;17.52;10.18;;;;;;;0.12;80.14;97905.43;1744718;82;21174;-68
2021/01/28 09:10:41;;;;;;;15.88;9.35;;;;;;;0.18;80.34;97890.41;1744923;82;21300;-67
2021/01/28 09:13:26;;;;;;;12.98;7.28;;;;;;;0.24;80.24;97887.45;1744588;82;21122;-69
2021/01/28 09:16:15;;;;;;;13.00;7.75;;;;;;;0.16;80.18;97888.72;1743966;82;21187;-68
2021/01/28 09:18:46;;;;;;;14.38;8.53;;;;;;;0.20;80.20;97886.79;1715036;84;21586;-68
2021/01/28 09:21:21;;;;;;;14.87;8.65;;;;;;;0.32;80.16;97887.86;1715042;84;21199;-68
2021/01/28 09:24:17;;;;;;;12.20;7.20;;;;;;;0.27;80.26;97888.56;1715243;83;21135;-70
2021/01/28 09:26:46;;;;;;;13.38;7.40;;;;;;;0.24;80.23;97882.25;1715654;84;21150;-71
2021/01/28 09:29:24;;;;;;;12.30;6.70;;;;;;;0.36;79.52;97873.75;1715699;84;21672;-70
2021/01/28 09:31:51;;;;;;;13.38;8.20;;;;;;;0.26;78.89;97867.41;1715883;83;21177;-70
2021/01/28 09:34:29;;;;;;;11.30;7.15;;;;;;;0.18;79.22;97867.01;1711145;84;21209;-70
2021/01/28 09:37:06;;;;;;;12.10;7.83;;;;;;;0.22;79.02;97857.65;1715075;84;21137;-70
2021/01/28 09:39:44;;;;;;;10.95;6.72;;;;;;;0.17;79.33;97866.19;1725878;82;21150;-68
2021/01/28 09:42:25;;;;;;;13.03;7.50;;;;;;;0.13;79.58;97857.72;1744550;82;21159;-68
2021/01/28 09:44:53;;;;;;;12.65;7.03;;;;;;;0.28;79.26;97860.34;1724333;82;21575;-68
2021/01/28 09:47:28;;;;;;;13.35;7.60;;;;;;;0.28;79.23;97861.64;1716335;83;21194;-68
2021/01/28 09:50:00;;;;;;;11.88;6.97;;;;;;;0.22;79.09;97867.20;1720937;82;21596;-68
2021/01/28 09:52:31;;;;;;;17.87;8.90;;;;;;;0.35;78.65;97866.05;1737275;82;21750;-68
2021/01/28 09:55:11;;;;;;;18.85;9.18;;;;;;;0.39;78.84;97858.43;1717847;83;21163;-68
2021/01/28 09:57:40;;;;;;;13.35;6.80;;;;;;;0.36;79.19;97859.45;1724704;82;21183;-68
2021/01/28 10:00:10;;;;;;;11.78;6.92;;;;;;;0.39;78.56;97838.45;1747450;81;21135;-69
2021/01/28 10:02:51;;;;;;;13.30;7.05;;;;;;;0.44;78.50;97845.98;1747356;82;21179;-68
2021/01/28 10:05:22;;;;;;;11.75;6.33;;;;;;;0.32;78.50;97841.06;1734283;82;21143;-69
2021/01/28 10:07:50;;;;;;;11.22;6.40;;;;;;;0.31;78.76;97835.48;1725533;82;21123;-68
2021/01/28 10:10:22;;;;;;;13.48;6.75;;;;;;;0.39;78.56;97837.14;1720016;82;21202;-69
2021/01/28 10:12:50;;;;;;;12.90;6.45;;;;;;;0.35;78.71;97834.36;1746997;82;21177;-70
2021/01/28 10:15:18;;;;;;;10.40;6.25;;;;;;;0.34;78.76;97843.08;1718284;82;21167;-70
2021/01/28 10:17:46;;;;;;;12.23;7.87;;;;;;;0.43;78.35;97839.93;1747540;81;21297;-70
2021/01/28 10:20:14;;;;;;;11.53;6.47;;;;;;;0.39;78.53;97847.55;1747562;82;21627;-70
2021/01/28 10:22:43;;;;;;;12.65;7.35;;;;;;;0.34;78.99;97844.86;1742243;82;21603;-70
2021/01/28 10:25:14;;;;;;;11.25;6.75;;;;;;;0.48;78.73;97858.70;1717809;83;21191;-69
2021/01/28 10:27:42;;;;;;;18.23;8.55;;;;;;;0.46;78.58;97868.38;1717842;83;21207;-68
2021/01/28 10:30:11;;;;;;;12.70;6.67;;;;;;;0.38;78.86;97864.08;1717927;83;21167;-69
2021/01/28 10:32:38;;;;;;;10.23;5.92;;;;;;;0.40;78.94;97859.63;1717745;83;21199;-69
2021/01/28 10:35:08;;;;;;;12.95;6.42;;;;;;;0.46;78.53;97853.22;1717600;83;21175;-69
2021/01/28 10:37:35;;;;;;;13.00;6.00;;;;;;;0.39;78.80;97847.55;1717667;83;21183;-69
2021/01/28 10:40:05;;;;;;;11.60;6.45;;;;;;;0.33;79.12;97847.91;1723052;82;21123;-69
2021/01/28 10:45:21;;;;;;;10.50;6.35;;;;;;;0.44;79.14;97844.20;1779655;79;23093;-68
2021/01/28 10:47:51;;;;;;;9.95;6.08;;;;;;;0.35;79.44;97847.37;1753100;81;21301;-68
2021/01/28 10:50:24;;;;;;;13.48;7.80;;;;;;;0.42;78.97;97846.08;1750962;82;21214;-68
2021/01/28 10:52:52;;;;;;;16.65;7.37;;;;;;;0.43;79.05;97841.70;1745918;82;21174;-71
2021/01/28 10:55:21;;;;;;;10.82;6.30;;;;;;;0.35;79.34;97851.27;1738753;82;21316;-69
2021/01/28 10:57:49;;;;;;;12.35;7.60;;;;;;;0.36;79.17;97861.19;1725324;82;21127;-68
2021/01/28 11:00:18;;;;;;;10.50;6.40;;;;;;;0.43;79.27;97870.31;1731237;82;21250;-69
2021/01/28 11:02:45;;;;;;;12.78;7.42;;;;;;;0.36;79.46;97874.19;1752918;82;21309;-69
2021/01/28 11:05:20;;;;;;;11.00;7.05;;;;;;;0.31;79.71;97864.08;1752768;82;21171;-69
2021/01/28 11:07:48;;;;;;;9.73;6.20;;;;;;;0.45;79.51;97856.30;1752969;82;21158;-69
2021/01/28 11:10:16;;;;;;;15.10;7.95;;;;;;;0.48;79.43;97857.88;1753089;81;21336;-69
2021/01/28 11:12:43;;;;;;;10.53;6.40;;;;;;;0.35;79.50;97857.77;1729842;81;21333;-69
2021/01/28 11:15:13;;;;;;;9.43;5.92;;;;;;;0.30;79.42;97852.00;1749000;82;21150;-69
2021/01/28 11:17:40;;;;;;;11.55;7.45;;;;;;;0.41;79.21;97840.50;1752981;81;21115;-69
2021/01/28 11:20:12;;;;;;;12.15;7.12;;;;;;;0.36;79.47;97833.89;1752886;82;21143;-69
2021/01/28 11:22:40;;;;;;;14.25;8.10;;;;;;;0.26;79.64;97824.04;1752875;82;21175;-69
2021/01/28 11:25:11;;;;;;;13.32;7.17;;;;;;;0.38;79.48;97817.74;1750098;82;21451;-69
2021/01/28 11:27:38;;;;;;;11.70;6.15;;;;;;;0.39;79.28;97814.22;1751901;82;21147;-70
2021/01/28 11:30:08;;;;;;;11.55;6.83;;;;;;;0.27;79.69;97815.77;1739859;82;21583;-71
2021/01/28 11:32:35;;;;;;;12.47;6.97;;;;;;;0.29;79.99;97811.32;1723005;83;21182;-71
2021/01/28 11:35:05;;;;;;;15.40;7.92;;;;;;;0.37;79.59;97803.06;1742908;82;21341;-70
2021/01/28 11:37:32;;;;;;;13.30;6.80;;;;;;;0.30;79.78;97793.02;1752768;82;21769;-71
2021/01/28 11:39:59;;;;;;;17.30;9.28;;;;;;;0.25;79.71;97796.84;1734700;82;21166;-70
2021/01/28 11:42:26;;;;;;;14.18;8.10;;;;;;;0.36;79.46;97784.03;1723094;83;21158;-71
2021/01/28 11:44:53;;;;;;;12.63;6.78;;;;;;;0.34;79.22;97792.38;1723720;83;21639;-70
2021/01/28 11:47:21;;;;;;;10.95;6.25;;;;;;;0.26;79.35;97788.94;1724147;83;21154;-70
2021/01/28 11:49:49;;;;;;;10.58;6.12;;;;;;;0.30;79.16;97783.09;1724038;83;21194;-70
2021/01/28 11:52:17;;;;;;;11.80;6.95;;;;;;;0.36;78.89;97776.23;1723905;83;21262;-70
2021/01/28 11:54:44;;;;;;;11.25;6.58;;;;;;;0.33;79.22;97776.41;1724036;83;21336;-70
2021/01/28 11:57:11;;;;;;;8.95;6.10;;;;;;;0.36;79.25;97772.33;1723506;83;21458;-71
2021/01/28 11:59:39;;;;;;;10.72;6.47;;;;;;;0.47;78.97;97767.77;1723374;83;21293;-70
2021/01/28 12:02:07;;;;;;;10.35;5.67;;;;;;;0.38;79.09;97759.23;1712391;83;21182;-71
2021/01/28 12:04:34;;;;;;;11.28;6.42;;;;;;;0.37;79.58;97762.31;1696371;83;21175;-71
2021/01/28 12:07:01;;;;;;;10.95;7.10;;;;;;;0.49;79.62;97751.14;1704968;83;21170;-71
2021/01/28 12:09:28;;;;;;;11.88;6.78;;;;;;;0.45;79.72;97744.45;1693026;85;21199;-71
2021/01/28 12:11:56;;;;;;;13.15;7.08;;;;;;;0.32;79.93;97735.75;1722641;83;21159;-71